Skip to Main Content
SEARCH:
Location Air RH Dwp Precip Type Wind Speed Wind Gust Direction Pavement Temperature Date/Time
Hatem Bridge US 40 E/B 48 59 35 None Calm 4 mph E 44 - 44 4/24/2018 4:53:00 AM
I-270 at I-370 52 55 36 None Calm 4 mph E 55 - 57 4/24/2018 4:50:00 AM
I-270 at MD-109 53 55 37 None Calm 5 mph NE 57 - 57 4/24/2018 4:50:00 AM
I-495 at American Legion Bridge 54 54 38 None Calm 9 mph E 57 - 58 4/24/2018 4:50:00 AM
I-68 at Savage Mt 44 69 34 None 11 mph 21 mph E 45 - 46 4/24/2018 4:50:00 AM
I-68 at Sideling Hill 47 64 36 None Calm Calm NE 52 - 52 4/24/2018 4:50:00 AM
I-68 at US 219 43 74 36 None 20 mph 33 mph SE 44 - 44 4/24/2018 4:50:00 AM
I-68 at WV Line 48 61 35 None 9 mph 18 mph E 49 - 50 4/24/2018 4:50:00 AM
I-695 at I-83 50 56 35 None Calm 5 mph E 54 - 56 4/24/2018 4:50:00 AM
I-695 on FSK Bridge 52 59 38 None 12 mph 15 mph SW 51 - 51 4/24/2018 4:50:00 AM
I-70 at Fred-Wash Co. 50 58 36 None 4 mph 9 mph SE 54 - 55 4/24/2018 4:50:00 AM
I-70 at I-695 51 62 39 None 5 mph 12 mph E 54 - 56 4/24/2018 4:50:00 AM
I-70 at I-81 52 50 34 None 4 mph 9 mph SE - 4/24/2018 4:50:00 AM
I-70 at MD-27 50 55 34 None 5 mph 10 mph E 53 - 54 4/24/2018 4:50:00 AM
I-70 at MD-32 49 57 35 None Calm Calm N 56 - 56 4/24/2018 4:50:00 AM
I-83 at MD-137 48 59 34 None Calm 6 mph N 54 - 54 4/24/2018 4:50:00 AM
I-95 at I-695 NE 51 54 35 None Calm 5 mph S 54 - 56 4/24/2018 4:50:00 AM
I-95 at Patuxent River 52 58 38 None Calm 7 mph S 55 - 55 4/24/2018 4:50:00 AM
I-95 at Tydings Bridge 49 60 35 None Calm 7 mph SE - 4/24/2018 4:50:00 AM
I-95/495 at I-295 55 55 39 None 5 mph 8 mph E 57 - 57 4/24/2018 4:50:00 AM
I-97 at MD-100 51 58 37 None 4 mph 6 mph E 55 - 56 4/24/2018 4:50:00 AM
I-97 at MD-32 51 58 37 None 7 mph 11 mph NE 56 - 57 4/24/2018 4:50:00 AM
IS 70 W of I-270 - - - No Data Available - - No Data Available 57 - 57 4/24/2018 4:50:00 AM
MD 20 at MD 21 48 59 34 None Calm Calm NE 54 - 54 4/24/2018 4:50:00 AM
MD 23 at Meadowtree Road 46 57 31 No Data Available Calm Calm N 53 - 53 4/24/2018 4:50:00 AM
MD 231 at Patuxent River 54 64 42 None Calm 6 mph E 55 - 57 4/24/2018 4:50:00 AM
MD 24 at Jarrettsville Road 45 62 33 No Data Available Calm Calm NE 54 - 54 4/24/2018 4:50:00 AM
MD 260 at Cox Rd 52 69 42 None Calm Calm SE 58 - 58 4/24/2018 4:50:00 AM
MD-135 at Salt Dome 41 95 39 Rain 12 mph 24 mph SE 46 - 46 4/24/2018 4:50:00 AM
MD-140 at MD-97 47 59 34 None Calm 8 mph E 51 - 55 4/24/2018 4:50:00 AM
MD-200 EB at Bonifant Rd 51 56 36 None Calm 5 mph E 54 - 56 4/24/2018 4:53:00 AM
MD-200 WB at Muncaster Mill Rd 51 55 35 None Calm 6 mph SE 55 - 56 4/24/2018 4:53:00 AM
MD-213 at Sassafras River 49 73 41 None Calm 6 mph E 52 - 52 4/24/2018 4:50:00 AM
MD-24 at Rock St Park 42 89 39 None Calm 4 mph N 49 - 49 4/24/2018 4:50:00 AM
MD-30 at PA Line 47 58 34 None Calm 5 mph N 53 - 53 4/24/2018 4:50:00 AM
MD-33 at Knapps Narrows Drawbridge 53 64 42 None 13 mph 19 mph E 56 - 56 4/24/2018 4:50:00 AM
MD-344 at MD-224 53 64 41 None Calm Calm E 62 - 62 4/24/2018 4:50:00 AM
MD-4 at Patuxent River 54 74 46 None 20 mph 23 mph SE 54 - 58 4/24/2018 4:50:00 AM
MD-404 at Choptank River 49 61 36 None 4 mph 8 mph NE 52 - 53 4/24/2018 4:50:00 AM
MD-43 at MD-150 52 53 36 None 5 mph 10 mph SE 56 - 57 4/24/2018 4:50:00 AM
MD-51 at Oldtown Salt Dome 53 51 35 None 5 mph 13 mph E 56 - 56 4/24/2018 4:50:00 AM
MD-64 at MD-418 53 48 34 None 6 mph 12 mph S 56 - 58 4/24/2018 4:50:00 AM
US 301 at MD 305 48 60 35 None 5 mph 7 mph E 52 - 53 4/24/2018 4:50:00 AM
US-1 at Baltimore / Harford Co. Line 43 80 38 None Calm Calm NW 51 - 52 4/24/2018 4:50:00 AM
US-1 at Conowingo Dam 46 67 36 None Calm Calm N 52 - 52 4/24/2018 4:50:00 AM
US-13 at US-113 52 74 44 None 4 mph 12 mph E 56 - 57 4/24/2018 4:50:00 AM
US-13 at US-50 49 69 40 None Calm 8 mph SE 54 - 54 4/24/2018 4:50:00 AM
US-15 at MD-140 46 67 36 None Calm Calm NW 54 - 54 4/24/2018 4:50:00 AM
US-301 at MD-5 52 63 40 None 4 mph 8 mph N 57 - 57 4/24/2018 4:50:00 AM
US-301 at Potomac 56 63 44 None 4 mph 11 mph E 55 - 59 4/24/2018 4:50:00 AM
US-340 at MD-180 52 51 35 None Calm Calm E 56 - 56 4/24/2018 4:50:00 AM
US-50 at Choptank 50 68 40 None 4 mph 10 mph E 52 - 54 4/24/2018 4:50:00 AM
US-50 at I-95 53 60 40 None Calm 4 mph E 57 - 58 4/24/2018 4:50:00 AM
US-50 at MD-2 52 60 39 None Calm 7 mph E 55 - 57 4/24/2018 4:50:00 AM
US-50 at MD-331 51 65 40 None 6 mph 12 mph E 53 - 62 4/24/2018 4:50:00 AM
US-50 at OC Drawbridge 51 84 46 None 16 mph 23 mph E 52 - 52 4/24/2018 4:50:00 AM
US-50 at Table Rock Rd 42 95 41 Rain 17 mph 31 mph E 43 - 43 4/24/2018 4:50:00 AM
US-50 Kent Narrow Bridge 51 59 38 None 6 mph 11 mph E 53 - 54 4/24/2018 4:50:00 AM
WPL Pier 31 52 54 36 None 13 mph 16 mph E 51 - 51 4/24/2018 4:53:00 AM
Location Air RH Dwp Precip Type Wind Speed Wind Gust Direction Pavement Temperature Date/Time